METAR Data
IDs: Format: Raw Decoded Include TAF

Data at: 1458 UTC 18 Aug 2019

PAWI 181353Z AUTO 32004KT 10SM CLR 08/00 A3060 RMK SLP360 T00780000 TSNO VIA AUTODIAL
PAWI 181253Z AUTO 30004KT 10SM CLR 07/01 A3062 RMK SLP368 T00720006 TSNO VIA AUTODIAL
PAWI 181153Z AUTO 29004KT 10SM CLR 08/M01 A3063 RMK SLP372 T00781006 10094 20072 58013 TSNO VIA AUTODIAL
PAWI 181053Z AUTO 28004KT 10SM CLR 07/M01 A3065 RMK SLP377 T00721006 TSNO VIA AUTODIAL
PAWI 180853Z AUTO 31004KT 10SM CLR 08/00 A3067 RMK SLP385 T00780000 58012 TSNO VIA AUTODIAL
PAWI 180753Z AUTO 31003KT 10SM CLR 08/01 A3068 RMK SLPNO T00780006 TSNO VIA AUTODIAL
PAWI 180653Z AUTO 34003KT 10SM CLR 08/01 A3069 RMK SLPNO T00830006 TSNO VIA AUTODIAL
PAWI 180553Z AUTO 34003KT 10SM CLR 09/00 A3070 RMK SLPNO T00940000 10100 20089 58009 TSNO VIA AUTODIAL
PAWI 180453Z AUTO 34005KT 10SM CLR 09/M01 A3072 RMK SLPNO T00941006 TSNO VIA AUTODIAL
PAWI 180353Z AUTO 34004KT 10SM CLR 10/00 A3072 RMK SLPNO T01000000 TSNO VIA AUTODIAL
PAWI 180253Z AUTO 34005KT 10SM CLR 10/00 A3073 RMK SLPNO T01000000 58011 TSNO VIA AUTODIAL
PAWI 180153Z AUTO 34006KT 10SM CLR 10/M01 A3074 RMK SLPNO T01001006 TSNO VIA AUTODIAL
PAWI 180053Z AUTO 30007KT 10SM CLR 10/01 A3075 RMK SLPNO T01000006 TSNO VIA AUTODIAL
PAWI 172353Z AUTO 30007KT 10SM CLR 10/01 A3076 RMK SLPNO T01000006 56004 TSNO VIA AUTODIAL
PAWI 172253Z AUTO 30006KT 10SM CLR 10/01 A3077 RMK SLPNO T01000006 TSNO VIA AUTODIAL
PAWI 172153Z AUTO 30005KT 10SM CLR 09/02 A3077 RMK SLPNO T00940017 TSNO VIA AUTODIAL
PAWI 172053Z AUTO VRB04KT 10SM CLR 09/02 A3077 RMK SLPNO T00940022 TSNO VIA AUTODIAL
PAWI 171953Z AUTO A3078 RMK SLPNO PWINO FZRANO TSNO $ VIA AUTODIAL
PAWI 171853Z AUTO A3078 RMK SLPNO PWINO FZRANO TSNO $ VIA AUTODIAL
PAWI 171753Z AUTO A3078 RMK SLPNO 53003 PWINO FZRANO TSNO $ VIA AUTODIAL
PAWI 171653Z AUTO A3077 RMK SLPNO PWINO FZRANO TSNO $ VIA AUTODIAL
PAWI 171553Z AUTO A3077 RMK SLPNO PWINO FZRANO TSNO $ VIA AUTODIAL
PAWI 171453Z AUTO A3077 RMK SLPNO 51007 PWINO FZRANO TSNO $ VIA AUTODIAL
PAWI 171353Z AUTO A3077 RMK SLPNO PWINO FZRANO TSNO $ VIA AUTODIAL
PAWI 171253Z AUTO A3076 RMK SLPNO PWINO FZRANO TSNO $ VIA AUTODIAL
PAWI 171153Z AUTO A3075 RMK SLPNO 51017 PWINO FZRANO TSNO $ VIA AUTODIAL
PAWI 171053Z AUTO A3074 RMK SLPNO PWINO FZRANO TSNO $ VIA AUTODIAL
PAWI 170953Z AUTO A3072 RMK SLPNO PWINO FZRANO TSNO $ VIA AUTODIAL
PAWI 170853Z AUTO A3070 RMK SLPNO 53024 PWINO FZRANO TSNO $ VIA AUTODIAL
PAWI 170753Z AUTO A3067 RMK SLPNO PWINO FZRANO TSNO $ VIA AUTODIAL
PAWI 170653Z AUTO A3065 RMK SLPNO PWINO FZRANO TSNO $ VIA AUTODIAL
PAWI 170553Z AUTO A3063 RMK SLPNO 53027 PWINO FZRANO TSNO $ VIA AUTODIAL
PAWI 170453Z AUTO A3060 RMK SLPNO PWINO FZRANO TSNO $ VIA AUTODIAL
PAWI 170353Z AUTO A3057 RMK SLPNO PWINO FZRANO TSNO $ VIA AUTODIAL